Time;durP1;ratioP1;P1;durP2;ratioP2;P2;SDS_P1;SDS_P2;PMS_P1;PMS_P2;Temp;Humidity;BMP_temperature;BMP_pressure;BME280_temperature;BME280_humidity;BME280_pressure;Samples;Min_cycle;Max_cycle;Signal;HPM_P1;HPM_P2
2021/10/31 00:02:17;;;;;;;;;;;13.50;96.40;;;;;;4338378;33;43777;-76
2021/10/31 00:04:45;;;;;;;;;;;13.40;96.30;;;;;;4333138;33;43059;-76
2021/10/31 00:07:12;;;;;;;;;;;13.40;96.40;;;;;;4346425;33;40038;-75
2021/10/31 00:09:39;;;;;;;;;;;13.40;96.30;;;;;;4333959;33;20043;-76
2021/10/31 00:12:06;;;;;;;;;;;13.40;96.30;;;;;;4332602;33;42067;-76
2021/10/31 00:14:33;;;;;;;;;;;13.40;96.40;;;;;;4322070;33;20008;-75
2021/10/31 00:17:01;;;;;;;;;;;13.40;96.40;;;;;;4345736;33;25382;-76
2021/10/31 00:19:28;;;;;;;;;;;13.40;96.40;;;;;;4332406;33;40566;-76
2021/10/31 00:21:56;;;;;;;;;;;13.40;96.40;;;;;;4332373;33;44368;-76
2021/10/31 00:24:23;;;;;;;;;;;13.40;96.40;;;;;;4345967;33;39485;-76
2021/10/31 00:26:50;;;;;;;;;;;13.40;96.40;;;;;;4332572;33;43435;-76
2021/10/31 00:29:17;;;;;;;;;;;13.30;96.40;;;;;;4346193;33;39565;-75
2021/10/31 00:31:44;;;;;;;;;;;13.30;96.40;;;;;;4333771;33;20051;-76
2021/10/31 00:34:12;;;;;;;;;;;13.30;96.40;;;;;;4345928;33;40836;-76
2021/10/31 00:36:39;;;;;;;;;;;13.30;96.40;;;;;;4345832;33;32187;-76
2021/10/31 00:39:06;;;;;;;;;;;13.30;96.40;;;;;;4346769;33;20046;-76
2021/10/31 00:41:34;;;;;;;;;;;13.30;96.40;;;;;;4347302;33;19997;-76
2021/10/31 00:44:03;;;;;;;;;;;13.30;96.40;;;;;;4346256;33;20076;-75
2021/10/31 00:46:31;;;;;;;;;;;13.30;96.40;;;;;;4346813;33;20473;-76
2021/10/31 00:48:59;;;;;;;;;;;13.30;96.40;;;;;;4334113;33;20085;-76
2021/10/31 00:51:27;;;;;;;;;;;13.30;96.40;;;;;;4333306;33;20011;-76
2021/10/31 00:53:56;;;;;;;;;;;13.30;96.40;;;;;;4332921;33;20012;-76
2021/10/31 00:56:24;;;;;;;;;;;13.30;96.40;;;;;;4345554;33;20005;-76
2021/10/31 00:58:51;;;;;;;;;;;13.30;96.30;;;;;;4333642;33;20064;-76
2021/10/31 01:01:20;;;;;;;;;;;13.30;96.30;;;;;;4345176;33;20343;-76
2021/10/31 01:03:51;;;;;;;;;;;13.30;96.30;;;;;;4347165;33;20009;-76
2021/10/31 01:06:27;;;;;;;;;;;13.30;96.30;;;;;;4333494;33;20018;-76
2021/10/31 01:08:59;;;;;;;;;;;13.30;96.30;;;;;;4346189;33;20019;-76
2021/10/31 01:11:27;;;;;;;;;;;13.30;96.30;;;;;;4333509;33;20005;-76
2021/10/31 01:14:01;;;;;;;;;;;13.30;96.30;;;;;;4320358;33;22832;-76
2021/10/31 01:16:34;;;;;;;;;;;13.20;96.30;;;;;;4320384;33;29870;-76
2021/10/31 01:19:01;;;;;;;;;;;13.20;96.30;;;;;;4345195;33;37485;-76
2021/10/31 01:21:34;;;;;;;;;;;13.20;96.30;;;;;;4345888;33;30055;-75
2021/10/31 01:24:19;;;;;;;;;;;13.20;96.30;;;;;;4345569;33;33105;-76
2021/10/31 01:26:50;;;;;;;;;;;13.20;96.20;;;;;;4319891;33;37224;-76
2021/10/31 01:29:22;;;;;;;;;;;13.20;96.20;;;;;;4345305;33;31382;-76
2021/10/31 01:32:05;;;;;;;;;;;13.20;96.30;;;;;;4332149;33;44017;-75
2021/10/31 01:34:42;;;;;;;;;;;13.20;96.30;;;;;;4345681;33;20023;-76
2021/10/31 01:37:09;;;;;;;;;;;13.20;96.30;;;;;;4333369;33;20015;-76
2021/10/31 01:39:38;;;;;;;;;;;13.10;96.30;;;;;;4332736;33;20021;-76
2021/10/31 01:42:24;;;;;;;;;;;13.10;96.30;;;;;;4333029;33;20368;-76
2021/10/31 01:45:00;;;;;;;;;;;13.10;96.30;;;;;;4333317;33;20005;-76
2021/10/31 01:47:28;;;;;;;;;;;13.10;96.40;;;;;;4332803;33;20044;-76
2021/10/31 01:50:04;;;;;;;;;;;13.10;96.30;;;;;;4331800;33;38509;-76
2021/10/31 01:52:40;;;;;;;;;;;13.10;96.30;;;;;;4345442;33;40001;-76
2021/10/31 01:55:11;;;;;;;;;;;13.10;96.30;;;;;;4332228;33;39246;-76
2021/10/31 01:57:41;;;;;;;;;;;13.10;96.30;;;;;;4344356;33;35603;-76
2021/10/31 02:00:13;;;;;;;;;;;13.10;96.30;;;;;;4346266;33;20013;-76
2021/10/31 02:02:42;;;;;;;;;;;13.10;96.30;;;;;;4345423;33;32892;-76
2021/10/31 02:05:11;;;;;;;;;;;13.10;96.20;;;;;;4345386;33;35705;-76
2021/10/31 02:07:39;;;;;;;;;;;13.10;96.20;;;;;;4344977;33;39064;-76
2021/10/31 02:10:08;;;;;;;;;;;13.10;96.30;;;;;;4332042;33;43286;-77
2021/10/31 02:12:36;;;;;;;;;;;13.10;96.30;;;;;;4344898;33;42336;-76
2021/10/31 02:15:04;;;;;;;;;;;13.00;96.20;;;;;;4345265;33;36645;-76
2021/10/31 02:17:31;;;;;;;;;;;13.00;96.20;;;;;;4345318;33;41035;-76
2021/10/31 02:19:58;;;;;;;;;;;13.00;96.30;;;;;;4345370;33;44011;-76
2021/10/31 02:22:30;;;;;;;;;;;13.00;96.30;;;;;;4347962;33;33429;-76
2021/10/31 02:24:59;;;;;;;;;;;13.00;96.30;;;;;;4346869;33;30635;-76
2021/10/31 02:27:29;;;;;;;;;;;13.00;96.30;;;;;;4346280;33;44998;-76
2021/10/31 02:29:57;;;;;;;;;;;13.00;96.30;;;;;;4334637;33;29389;-76
2021/10/31 02:32:26;;;;;;;;;;;13.00;96.30;;;;;;4347589;33;42664;-76
2021/10/31 02:34:54;;;;;;;;;;;13.00;96.30;;;;;;4346375;33;33273;-75
2021/10/31 02:37:22;;;;;;;;;;;13.00;96.30;;;;;;4347984;33;33084;-76
2021/10/31 02:39:50;;;;;;;;;;;13.00;96.30;;;;;;4347552;33;44296;-76
2021/10/31 02:42:17;;;;;;;;;;;13.00;96.30;;;;;;4333904;33;41835;-76
2021/10/31 02:44:44;;;;;;;;;;;13.00;96.30;;;;;;4334146;33;42773;-76
2021/10/31 02:47:22;;;;;;;;;;;13.00;96.20;;;;;;4347717;33;35183;-76
2021/10/31 02:49:50;;;;;;;;;;;13.00;96.20;;;;;;4334323;33;42540;-76
2021/10/31 02:52:40;;;;;;;;;;;13.00;96.20;;;;;;4335874;33;43685;-76
2021/10/31 02:55:26;;;;;;;;;;;13.00;96.20;;;;;;4334454;33;38243;-76
2021/10/31 02:57:56;;;;;;;;;;;13.00;96.20;;;;;;4347390;33;25205;-76
2021/10/31 03:00:26;;;;;;;;;;;13.00;96.20;;;;;;4334733;33;20377;-76
2021/10/31 03:02:53;;;;;;;;;;;13.00;96.10;;;;;;4333723;33;38721;-76
2021/10/31 03:05:21;;;;;;;;;;;13.00;96.10;;;;;;4333787;33;36729;-76
2021/10/31 03:07:48;;;;;;;;;;;13.00;96.10;;;;;;4347131;33;37365;-76
2021/10/31 03:10:16;;;;;;;;;;;13.10;96.10;;;;;;4346734;33;44442;-76
2021/10/31 03:12:47;;;;;;;;;;;13.00;96.10;;;;;;4333826;33;43486;-76
2021/10/31 03:15:15;;;;;;;;;;;13.00;96.10;;;;;;4347258;33;36932;-76
2021/10/31 03:17:42;;;;;;;;;;;13.00;96.10;;;;;;4333615;33;40255;-76
2021/10/31 03:20:09;;;;;;;;;;;13.00;96.10;;;;;;4333170;33;43909;-75
2021/10/31 03:22:37;;;;;;;;;;;12.90;96.20;;;;;;4333413;33;43857;-75
2021/10/31 03:25:04;;;;;;;;;;;12.90;96.20;;;;;;4346089;33;43365;-76
2021/10/31 03:27:31;;;;;;;;;;;12.90;96.20;;;;;;4333452;33;45406;-76
2021/10/31 03:29:58;;;;;;;;;;;12.90;96.20;;;;;;4320986;33;46296;-76
2021/10/31 03:32:26;;;;;;;;;;;12.90;96.30;;;;;;4333219;33;39725;-76
2021/10/31 03:34:53;;;;;;;;;;;12.90;96.30;;;;;;4346508;33;42714;-76
2021/10/31 03:37:20;;;;;;;;;;;12.90;96.30;;;;;;4346417;33;40180;-76
2021/10/31 03:39:47;;;;;;;;;;;12.90;96.30;;;;;;4333286;33;44798;-76
2021/10/31 03:42:14;;;;;;;;;;;12.80;96.30;;;;;;4345582;33;44628;-76
2021/10/31 03:44:49;;;;;;;;;;;12.80;96.30;;;;;;4334772;33;20023;-75
2021/10/31 03:47:17;;;;;;;;;;;12.80;96.30;;;;;;4346742;33;42658;-75
2021/10/31 03:49:44;;;;;;;;;;;12.80;96.40;;;;;;4346825;33;36834;-76
2021/10/31 03:52:12;;;;;;;;;;;12.80;96.40;;;;;;4333562;33;39534;-76
2021/10/31 03:54:40;;;;;;;;;;;12.80;96.40;;;;;;4333068;33;45076;-77
2021/10/31 03:57:07;;;;;;;;;;;12.80;96.40;;;;;;4346283;33;36534;-76
2021/10/31 03:59:34;;;;;;;;;;;12.80;96.40;;;;;;4332893;33;43702;-76
2021/10/31 04:02:02;;;;;;;;;;;12.80;96.40;;;;;;4332647;33;39661;-76
2021/10/31 04:04:30;;;;;;;;;;;12.80;96.40;;;;;;4332712;33;45259;-76
2021/10/31 04:06:57;;;;;;;;;;;12.80;96.40;;;;;;4345722;33;33631;-76
2021/10/31 04:09:24;;;;;;;;;;;12.80;96.40;;;;;;4345913;33;40927;-76
2021/10/31 04:11:51;;;;;;;;;;;12.80;96.30;;;;;;4320503;33;43428;-76
2021/10/31 04:14:18;;;;;;;;;;;12.70;96.30;;;;;;4346783;33;30866;-77
2021/10/31 04:16:46;;;;;;;;;;;12.80;96.40;;;;;;4345390;33;32386;-75
2021/10/31 04:19:18;;;;;;;;;;;12.80;96.40;;;;;;4346418;33;39635;-75
2021/10/31 04:21:45;;;;;;;;;;;12.80;96.40;;;;;;4320720;33;43410;-76
2021/10/31 04:24:13;;;;;;;;;;;12.70;96.40;;;;;;4346927;33;20476;-76
2021/10/31 04:26:40;;;;;;;;;;;12.80;96.40;;;;;;4332545;33;42836;-76
2021/10/31 04:29:07;;;;;;;;;;;12.70;96.30;;;;;;4332967;33;45537;-76
2021/10/31 04:31:34;;;;;;;;;;;12.70;96.30;;;;;;4332392;33;40924;-76
2021/10/31 04:34:01;;;;;;;;;;;12.80;96.40;;;;;;4346364;33;33737;-76
2021/10/31 04:36:29;;;;;;;;;;;12.70;96.30;;;;;;4345708;33;20440;-77
2021/10/31 04:38:56;;;;;;;;;;;12.70;96.30;;;;;;4332594;33;36713;-76
2021/10/31 04:41:25;;;;;;;;;;;12.70;96.30;;;;;;4345539;33;43688;-76
2021/10/31 04:43:53;;;;;;;;;;;12.70;96.30;;;;;;4346277;33;20052;-76
2021/10/31 04:46:20;;;;;;;;;;;12.70;96.30;;;;;;4344768;33;39988;-76
2021/10/31 04:48:47;;;;;;;;;;;12.70;96.30;;;;;;4332399;33;36801;-75
2021/10/31 04:51:14;;;;;;;;;;;12.70;96.30;;;;;;4332728;33;36854;-77
2021/10/31 04:53:42;;;;;;;;;;;12.70;96.30;;;;;;4331988;33;42514;-76
2021/10/31 04:56:09;;;;;;;;;;;12.70;96.30;;;;;;4331773;33;45190;-76
2021/10/31 04:58:36;;;;;;;;;;;12.70;96.30;;;;;;4319846;33;45936;-76
2021/10/31 05:01:04;;;;;;;;;;;12.70;96.30;;;;;;4345623;33;20059;-76
2021/10/31 05:03:32;;;;;;;;;;;12.70;96.30;;;;;;4332765;33;39402;-75
2021/10/31 05:05:59;;;;;;;;;;;12.60;96.30;;;;;;4346015;33;20362;-77
2021/10/31 05:08:27;;;;;;;;;;;12.60;96.30;;;;;;4333744;33;20013;-76
2021/10/31 05:10:54;;;;;;;;;;;12.60;96.30;;;;;;4332899;33;20002;-76
2021/10/31 05:13:22;;;;;;;;;;;12.60;96.30;;;;;;4344994;33;20017;-76
2021/10/31 05:15:49;;;;;;;;;;;12.60;96.30;;;;;;4346555;33;20001;-77
2021/10/31 05:18:16;;;;;;;;;;;12.60;96.30;;;;;;4345954;33;20017;-77
2021/10/31 05:20:43;;;;;;;;;;;12.60;96.20;;;;;;4346801;33;20099;-76
2021/10/31 05:23:11;;;;;;;;;;;12.70;96.60;;;;;;4346811;33;20001;-76
2021/10/31 05:25:38;;;;;;;;;;;12.70;96.20;;;;;;4332320;33;20009;-76
2021/10/31 05:28:05;;;;;;;;;;;12.70;96.20;;;;;;4332976;33;20407;-76
2021/10/31 05:30:32;;;;;;;;;;;12.70;96.20;;;;;;4333274;33;20012;-76
2021/10/31 05:32:59;;;;;;;;;;;12.70;96.20;;;;;;4346189;33;20441;-76
2021/10/31 05:35:29;;;;;;;;;;;12.70;96.10;;;;;;4333082;33;20017;-76
2021/10/31 05:37:58;;;;;;;;;;;12.70;96.10;;;;;;4332476;33;20016;-76
2021/10/31 05:40:26;;;;;;;;;;;12.70;96.00;;;;;;4332393;33;20020;-76
2021/10/31 05:42:58;;;;;;;;;;;12.70;96.00;;;;;;4332724;33;20510;-76
2021/10/31 05:45:26;;;;;;;;;;;12.70;95.90;;;;;;4332767;33;20008;-76
2021/10/31 05:47:53;;;;;;;;;;;12.80;96.00;;;;;;4333235;33;20068;-76
2021/10/31 05:50:21;;;;;;;;;;;12.80;96.00;;;;;;4345685;33;20024;-76
2021/10/31 05:52:48;;;;;;;;;;;12.80;96.00;;;;;;4332958;33;20391;-76
2021/10/31 05:55:16;;;;;;;;;;;12.80;95.90;;;;;;4333901;33;20378;-76
2021/10/31 05:57:43;;;;;;;;;;;12.80;95.90;;;;;;4348873;33;20043;-76
2021/10/31 06:00:12;;;;;;;;;;;12.80;95.90;;;;;;4335433;33;20320;-76
2021/10/31 06:02:39;;;;;;;;;;;12.80;95.90;;;;;;4348417;33;20029;-75
2021/10/31 06:05:07;;;;;;;;;;;12.80;95.90;;;;;;4335102;33;20019;-76
2021/10/31 06:07:35;;;;;;;;;;;12.80;95.90;;;;;;4349017;33;20068;-76
2021/10/31 06:10:03;;;;;;;;;;;12.70;95.90;;;;;;4348860;33;20433;-76
2021/10/31 06:12:30;;;;;;;;;;;12.70;95.90;;;;;;4348756;33;20369;-76
2021/10/31 06:14:57;;;;;;;;;;;12.70;95.90;;;;;;4348920;33;20046;-76
2021/10/31 06:17:24;;;;;;;;;;;12.70;95.80;;;;;;4335414;33;20078;-76
2021/10/31 06:19:52;;;;;;;;;;;12.70;95.80;;;;;;4348612;33;20005;-76
2021/10/31 06:22:19;;;;;;;;;;;12.70;95.80;;;;;;4349073;33;20009;-75
2021/10/31 06:24:46;;;;;;;;;;;12.70;95.80;;;;;;4348511;33;20023;-76
2021/10/31 06:27:13;;;;;;;;;;;12.70;95.80;;;;;;4335539;33;20429;-76
2021/10/31 06:29:40;;;;;;;;;;;12.70;95.80;;;;;;4348694;33;20373;-76
2021/10/31 06:32:10;;;;;;;;;;;12.70;95.80;;;;;;4348663;33;20010;-76
2021/10/31 06:34:37;;;;;;;;;;;12.70;95.70;;;;;;4348119;33;20012;-76
2021/10/31 06:37:05;;;;;;;;;;;12.70;95.70;;;;;;4347597;33;20075;-76
2021/10/31 06:39:32;;;;;;;;;;;12.70;95.70;;;;;;4348479;33;20394;-76
2021/10/31 06:41:59;;;;;;;;;;;12.80;95.60;;;;;;4335139;33;20027;-76
2021/10/31 06:44:27;;;;;;;;;;;12.80;95.60;;;;;;4335100;33;20013;-76
2021/10/31 06:47:04;;;;;;;;;;;12.80;95.50;;;;;;4334641;33;20067;-76
2021/10/31 06:49:41;;;;;;;;;;;12.80;95.50;;;;;;4335616;33;20035;-76
2021/10/31 06:52:09;;;;;;;;;;;12.80;95.50;;;;;;4335277;33;20428;-76
2021/10/31 06:54:39;;;;;;;;;;;12.80;95.50;;;;;;4335400;33;20400;-75
2021/10/31 06:57:06;;;;;;;;;;;12.80;95.40;;;;;;4347473;33;41705;-76
2021/10/31 06:59:33;;;;;;;;;;;12.80;95.40;;;;;;4347135;33;42275;-76
2021/10/31 07:02:00;;;;;;;;;;;12.80;95.40;;;;;;4334388;33;20019;-76
2021/10/31 07:04:33;;;;;;;;;;;12.80;95.40;;;;;;4348390;33;20117;-76
2021/10/31 07:07:04;;;;;;;;;;;12.80;95.40;;;;;;4346789;33;20334;-76
2021/10/31 07:09:37;;;;;;;;;;;12.80;95.40;;;;;;4348495;33;20051;-76
2021/10/31 07:12:06;;;;;;;;;;;12.80;95.30;;;;;;4347569;33;44468;-76
2021/10/31 07:14:37;;;;;;;;;;;12.80;95.30;;;;;;4348311;33;20008;-76
2021/10/31 07:17:08;;;;;;;;;;;12.80;95.30;;;;;;4321431;33;45198;-76
2021/10/31 07:19:38;;;;;;;;;;;12.80;95.30;;;;;;4333630;33;46232;-76
2021/10/31 07:22:05;;;;;;;;;;;12.80;95.20;;;;;;4347207;33;43369;-75
2021/10/31 07:24:34;;;;;;;;;;;12.80;95.20;;;;;;4321196;33;38385;-76
2021/10/31 07:27:04;;;;;;;;;;;12.80;95.20;;;;;;4346979;33;44980;-76
2021/10/31 07:29:34;;;;;;;;;;;12.80;95.20;;;;;;4347114;33;36121;-76
2021/10/31 07:32:05;;;;;;;;;;;12.80;95.20;;;;;;4334393;33;26448;-76
2021/10/31 07:34:32;;;;;;;;;;;12.80;95.20;;;;;;4346807;33;45066;-76
2021/10/31 07:36:59;;;;;;;;;;;12.80;95.20;;;;;;4333348;33;38624;-76
2021/10/31 07:39:29;;;;;;;;;;;12.80;95.20;;;;;;4346893;33;44951;-76
2021/10/31 07:41:58;;;;;;;;;;;12.80;95.20;;;;;;4346480;33;40262;-76
2021/10/31 07:44:25;;;;;;;;;;;12.80;95.20;;;;;;4333160;33;37736;-76
2021/10/31 07:46:55;;;;;;;;;;;12.80;95.20;;;;;;4346042;33;29849;-76
2021/10/31 07:49:26;;;;;;;;;;;12.80;95.20;;;;;;4333136;33;38843;-76
2021/10/31 07:51:56;;;;;;;;;;;12.80;95.20;;;;;;4333383;33;30713;-76
2021/10/31 07:54:25;;;;;;;;;;;12.80;95.20;;;;;;4321232;33;38434;-76
2021/10/31 07:56:59;;;;;;;;;;;12.80;95.20;;;;;;4321487;33;27876;-76
2021/10/31 07:59:26;;;;;;;;;;;12.80;95.20;;;;;;4333152;33;35392;-76
2021/10/31 08:01:54;;;;;;;;;;;12.80;95.20;;;;;;4346227;33;41347;-76
2021/10/31 08:04:22;;;;;;;;;;;12.80;95.20;;;;;;4333013;33;40716;-75
2021/10/31 08:06:50;;;;;;;;;;;12.80;95.20;;;;;;4346278;33;43252;-76
2021/10/31 08:09:17;;;;;;;;;;;12.80;95.20;;;;;;4332890;33;45095;-76
2021/10/31 08:11:44;;;;;;;;;;;12.80;95.20;;;;;;4345527;33;36070;-76
2021/10/31 08:14:17;;;;;;;;;;;12.80;95.20;;;;;;4346130;33;27401;-76
2021/10/31 08:16:47;;;;;;;;;;;12.80;95.20;;;;;;4332085;33;40628;-76
2021/10/31 08:19:14;;;;;;;;;;;12.80;95.20;;;;;;4331916;33;46033;-76
2021/10/31 08:21:41;;;;;;;;;;;12.80;95.30;;;;;;4333151;33;20001;-75
2021/10/31 08:24:11;;;;;;;;;;;12.80;95.30;;;;;;4333094;33;20005;-76
2021/10/31 08:26:38;;;;;;;;;;;12.80;95.30;;;;;;4347007;33;20100;-76
2021/10/31 08:29:05;;;;;;;;;;;12.90;95.30;;;;;;4346455;33;20013;-76
2021/10/31 08:31:39;;;;;;;;;;;12.90;95.30;;;;;;4346655;33;20354;-76
2021/10/31 08:34:09;;;;;;;;;;;12.90;95.30;;;;;;4321592;33;20063;-76
2021/10/31 08:36:36;;;;;;;;;;;12.90;95.30;;;;;;4331963;33;39642;-76
2021/10/31 08:39:04;;;;;;;;;;;12.90;95.30;;;;;;4345822;33;37555;-76
2021/10/31 08:41:34;;;;;;;;;;;12.90;95.30;;;;;;4345437;33;34081;-76
2021/10/31 08:44:01;;;;;;;;;;;12.90;95.30;;;;;;4320288;33;29240;-76
2021/10/31 08:46:29;;;;;;;;;;;12.90;95.30;;;;;;4332061;33;41470;-76
2021/10/31 08:48:56;;;;;;;;;;;12.90;95.40;;;;;;4332494;33;40207;-76
2021/10/31 08:51:25;;;;;;;;;;;12.90;95.30;;;;;;4332174;33;32667;-76
2021/10/31 08:53:56;;;;;;;;;;;12.90;95.40;;;;;;4332487;33;30822;-75
2021/10/31 08:56:24;;;;;;;;;;;12.90;95.40;;;;;;4320552;33;20005;-76
2021/10/31 08:58:52;;;;;;;;;;;12.90;95.40;;;;;;4333141;33;20304;-76
2021/10/31 09:01:19;;;;;;;;;;;12.90;95.40;;;;;;4346225;33;20005;-76
2021/10/31 09:03:52;;;;;;;;;;;12.90;95.40;;;;;;4345283;33;41522;-76
2021/10/31 09:06:20;;;;;;;;;;;12.90;95.40;;;;;;4345590;33;20013;-76
2021/10/31 09:08:47;;;;;;;;;;;12.90;95.40;;;;;;4345527;33;44029;-75
2021/10/31 09:11:14;;;;;;;;;;;12.90;95.40;;;;;;4345164;33;32884;-76
2021/10/31 09:13:45;;;;;;;;;;;12.90;95.80;;;;;;4345313;33;42012;-75
2021/10/31 09:16:12;;;;;;;;;;;12.90;95.50;;;;;;4320459;33;21131;-76
2021/10/31 09:18:39;;;;;;;;;;;13.00;95.50;;;;;;4332177;33;39094;-76
2021/10/31 09:21:07;;;;;;;;;;;13.00;95.50;;;;;;4319523;33;38795;-75
2021/10/31 09:23:35;;;;;;;;;;;13.00;95.60;;;;;;4331761;33;41339;-76
2021/10/31 09:26:02;;;;;;;;;;;13.00;95.60;;;;;;4345457;33;33857;-76
2021/10/31 09:28:30;;;;;;;;;;;13.00;95.60;;;;;;4332284;33;20449;-76
2021/10/31 09:30:57;;;;;;;;;;;13.00;95.70;;;;;;4345156;33;40041;-76
2021/10/31 09:33:33;;;;;;;;;;;13.00;95.70;;;;;;4345828;33;20013;-76
2021/10/31 09:36:03;;;;;;;;;;;13.10;95.80;;;;;;4332895;33;22830;-76
2021/10/31 09:38:33;;;;;;;;;;;13.10;95.80;;;;;;4345465;33;40842;-75
2021/10/31 09:41:06;;;;;;;;;;;13.10;95.80;;;;;;4345472;33;23514;-76
2021/10/31 09:43:47;;;;;;;;;;;13.10;95.80;;;;;;4333422;33;20019;-76
2021/10/31 09:46:17;;;;;;;;;;;13.20;95.90;;;;;;4346448;33;20013;-76
2021/10/31 09:48:50;;;;;;;;;;;13.20;95.90;;;;;;4331816;33;36137;-75
2021/10/31 09:51:24;;;;;;;;;;;13.20;95.90;;;;;;4332431;33;32235;-76
2021/10/31 09:53:56;;;;;;;;;;;13.30;96.00;;;;;;4331993;33;39158;-75
2021/10/31 09:56:28;;;;;;;;;;;13.30;95.90;;;;;;4332049;33;42831;-76
2021/10/31 09:59:02;;;;;;;;;;;13.40;96.00;;;;;;4321115;33;20046;-75
2021/10/31 10:01:34;;;;;;;;;;;13.40;95.90;;;;;;4345425;33;22914;-75
2021/10/31 10:04:10;;;;;;;;;;;13.50;96.00;;;;;;4346375;33;20071;-76
2021/10/31 10:06:49;;;;;;;;;;;13.50;96.20;;;;;;4346257;33;20083;-76
2021/10/31 10:09:22;;;;;;;;;;;13.60;96.20;;;;;;4346288;33;20019;-76
2021/10/31 10:11:53;;;;;;;;;;;13.70;96.30;;;;;;4345305;33;34863;-76
2021/10/31 10:14:30;;;;;;;;;;;13.80;96.40;;;;;;4345604;33;20691;-75
2021/10/31 10:17:02;;;;;;;;;;;13.80;96.40;;;;;;4345529;33;26494;-76
2021/10/31 10:19:44;;;;;;;;;;;13.90;96.40;;;;;;4333100;33;20012;-76
2021/10/31 10:22:22;;;;;;;;;;;14.00;96.40;;;;;;4332798;33;20015;-76
2021/10/31 10:25:00;;;;;;;;;;;14.00;96.40;;;;;;4320878;33;20391;-75
2021/10/31 10:27:35;;;;;;;;;;;14.00;96.30;;;;;;4345615;33;30791;-76
2021/10/31 10:30:15;;;;;;;;;;;14.10;96.50;;;;;;4332864;33;20002;-75
2021/10/31 10:32:52;;;;;;;;;;;14.10;96.30;;;;;;4346232;33;20361;-76
2021/10/31 10:35:26;;;;;;;;;;;14.10;96.70;;;;;;4344785;33;20013;-77
2021/10/31 10:37:57;;;;;;;;;;;14.10;96.40;;;;;;4344949;33;20017;-76
2021/10/31 10:40:25;;;;;;;;;;;14.20;96.50;;;;;;4319295;33;41733;-75
2021/10/31 10:43:03;;;;;;;;;;;14.20;96.50;;;;;;4336174;33;20016;-77
2021/10/31 10:45:40;;;;;;;;;;;14.20;96.50;;;;;;4322088;33;39997;-76
2021/10/31 10:48:16;;;;;;;;;;;14.30;96.60;;;;;;4348027;33;29387;-76
2021/10/31 10:50:44;;;;;;;;;;;14.30;96.50;;;;;;4347538;33;43157;-76
2021/10/31 10:53:18;;;;;;;;;;;14.30;96.60;;;;;;4348263;33;20081;-76
2021/10/31 10:55:51;;;;;;;;;;;14.30;96.60;;;;;;4335249;33;20053;-76
2021/10/31 10:58:24;;;;;;;;;;;14.40;96.70;;;;;;4347780;33;27597;-76
2021/10/31 11:00:52;;;;;;;;;;;14.40;96.70;;;;;;4321933;33;34552;-76
2021/10/31 11:03:23;;;;;;;;;;;14.40;96.60;;;;;;4333477;33;44784;-76
2021/10/31 11:06:02;;;;;;;;;;;14.40;96.70;;;;;;4348748;33;20039;-75
2021/10/31 11:08:35;;;;;;;;;;;14.50;96.70;;;;;;4321722;33;46095;-76
2021/10/31 11:11:12;;;;;;;;;;;14.50;96.80;;;;;;4333670;33;33288;-77
2021/10/31 11:13:46;;;;;;;;;;;14.50;96.70;;;;;;4347354;33;41786;-76
2021/10/31 11:16:13;;;;;;;;;;;14.60;96.90;;;;;;4321679;33;33752;-76
2021/10/31 11:18:40;;;;;;;;;;;14.60;97.10;;;;;;4333759;33;38731;-76
2021/10/31 11:21:07;;;;;;;;;;;14.60;97.10;;;;;;4345933;33;31997;-76
2021/10/31 11:23:37;;;;;;;;;;;14.70;97.00;;;;;;4333528;33;42013;-75
2021/10/31 11:26:08;;;;;;;;;;;14.70;96.80;;;;;;4346768;33;20044;-76
2021/10/31 11:28:35;;;;;;;;;;;14.80;96.90;;;;;;4346950;33;44661;-76
2021/10/31 11:31:03;;;;;;;;;;;14.80;96.90;;;;;;4333737;33;43009;-76
2021/10/31 11:33:31;;;;;;;;;;;14.90;96.90;;;;;;4321158;33;45742;-76
2021/10/31 11:35:58;;;;;;;;;;;14.90;97.00;;;;;;4347586;33;20071;-76
2021/10/31 11:38:30;;;;;;;;;;;14.90;96.90;;;;;;4333483;33;42419;-76
2021/10/31 11:41:00;;;;;;;;;;;15.00;96.80;;;;;;4333945;33;33780;-76
2021/10/31 11:43:32;;;;;;;;;;;15.00;96.80;;;;;;4346196;33;34534;-76
2021/10/31 11:45:59;;;;;;;;;;;15.00;96.80;;;;;;4321504;33;25915;-76
2021/10/31 11:48:32;;;;;;;;;;;15.10;96.80;;;;;;4347721;33;20032;-76
2021/10/31 11:51:02;;;;;;;;;;;15.00;96.80;;;;;;4333583;33;39259;-77
2021/10/31 11:53:32;;;;;;;;;;;15.10;96.80;;;;;;4334303;33;20008;-76
2021/10/31 11:56:20;;;;;;;;;;;15.10;96.80;;;;;;4322072;33;20390;-76
2021/10/31 11:58:51;;;;;;;;;;;15.10;96.80;;;;;;4334215;33;20418;-77
2021/10/31 12:01:19;;;;;;;;;;;15.20;96.80;;;;;;4333117;33;22510;-76
2021/10/31 12:03:46;;;;;;;;;;;15.20;96.80;;;;;;4347477;33;20014;-77
2021/10/31 12:06:13;;;;;;;;;;;15.30;96.80;;;;;;4334111;33;20017;-76
2021/10/31 12:08:51;;;;;;;;;;;15.30;96.80;;;;;;4334671;33;20023;-76
2021/10/31 12:11:18;;;;;;;;;;;15.40;96.70;;;;;;4334561;33;20072;-76
2021/10/31 12:13:46;;;;;;;;;;;15.40;96.70;;;;;;4346687;33;35837;-76
2021/10/31 12:16:17;;;;;;;;;;;15.40;96.80;;;;;;4333112;33;40166;-77
2021/10/31 12:18:44;;;;;;;;;;;15.50;96.70;;;;;;4346967;33;20102;-76
2021/10/31 12:21:25;;;;;;;;;;;15.60;96.70;;;;;;4334281;33;20351;-77
2021/10/31 12:24:03;;;;;;;;;;;15.60;96.60;;;;;;4347161;33;20021;-77
2021/10/31 12:27:10;;;;;;;;;;;15.60;96.60;;;;;;4355563;32;45072;-76
2021/10/31 12:29:47;;;;;;;;;;;15.70;96.50;;;;;;4332963;33;44299;-77
2021/10/31 12:32:21;;;;;;;;;;;15.70;96.50;;;;;;4332366;33;44005;-76
2021/10/31 12:34:50;;;;;;;;;;;15.80;96.40;;;;;;4345868;33;33070;-78
2021/10/31 12:37:23;;;;;;;;;;;15.80;96.40;;;;;;4346248;33;20039;-76
2021/10/31 12:39:52;;;;;;;;;;;15.80;96.40;;;;;;4333536;33;20001;-79
2021/10/31 12:42:21;;;;;;;;;;;15.80;96.40;;;;;;4332753;33;25617;-77
2021/10/31 12:44:55;;;;;;;;;;;15.90;96.40;;;;;;4332302;33;44701;-76
2021/10/31 12:47:56;;;;;;;;;;;15.90;96.30;;;;;;4332434;33;34630;-77
2021/10/31 12:50:24;;;;;;;;;;;15.90;96.30;;;;;;4344485;33;31439;-76
2021/10/31 12:53:06;;;;;;;;;;;15.90;96.30;;;;;;4345923;33;23614;-76
2021/10/31 12:55:33;;;;;;;;;;;16.00;96.30;;;;;;4332756;33;40848;-77
2021/10/31 12:58:02;;;;;;;;;;;16.00;96.30;;;;;;4344447;33;43820;-77
2021/10/31 13:00:34;;;;;;;;;;;16.00;96.30;;;;;;4332822;33;20005;-76
2021/10/31 13:03:03;;;;;;;;;;;16.00;96.30;;;;;;4330473;33;20020;-76
2021/10/31 13:05:31;;;;;;;;;;;16.00;96.10;;;;;;4331488;33;20013;-78
2021/10/31 13:08:05;;;;;;;;;;;16.00;96.10;;;;;;4332140;33;20102;-77
2021/10/31 13:10:33;;;;;;;;;;;16.00;96.00;;;;;;4318472;33;20005;-77
2021/10/31 13:13:02;;;;;;;;;;;16.10;96.10;;;;;;4331602;33;20001;-77
2021/10/31 13:15:33;;;;;;;;;;;16.10;96.20;;;;;;4318248;33;20008;-77
2021/10/31 13:18:01;;;;;;;;;;;16.10;96.50;;;;;;4330895;33;20427;-76
2021/10/31 13:20:35;;;;;;;;;;;16.10;96.10;;;;;;4331490;33;20039;-77
2021/10/31 13:23:05;;;;;;;;;;;16.10;96.10;;;;;;4331037;33;20027;-77
2021/10/31 13:25:35;;;;;;;;;;;16.10;96.20;;;;;;4331619;33;20415;-77
2021/10/31 13:28:32;;;;;;;;;;;16.10;96.20;;;;;;4330834;33;20045;-77
2021/10/31 13:31:06;;;;;;;;;;;16.10;96.20;;;;;;4318304;33;37402;-77
2021/10/31 13:33:33;;;;;;;;;;;16.10;96.20;;;;;;4330821;33;43228;-78
2021/10/31 13:36:12;;;;;;;;;;;16.10;96.20;;;;;;4331263;33;20382;-77
2021/10/31 13:38:57;;;;;;;;;;;16.10;96.30;;;;;;4332074;33;20081;-78
2021/10/31 13:41:43;;;;;;;;;;;16.20;96.30;;;;;;4330762;33;40139;-77
2021/10/31 13:44:13;;;;;;;;;;;16.20;96.40;;;;;;4329653;33;44716;-77
2021/10/31 13:46:43;;;;;;;;;;;16.20;96.40;;;;;;4330644;33;42898;-77
2021/10/31 13:49:39;;;;;;;;;;;16.20;96.40;;;;;;4329756;33;36054;-77
2021/10/31 13:52:07;;;;;;;;;;;16.30;96.40;;;;;;4331667;33;20009;-77
2021/10/31 13:54:34;;;;;;;;;;;16.30;96.40;;;;;;4330127;33;20012;-76
2021/10/31 13:57:02;;;;;;;;;;;16.30;96.40;;;;;;4331602;33;20016;-78
2021/10/31 13:59:31;;;;;;;;;;;16.40;96.50;;;;;;4317403;33;30070;-77
2021/10/31 14:01:58;;;;;;;;;;;16.40;96.50;;;;;;4341383;33;37103;-77
2021/10/31 14:04:30;;;;;;;;;;;16.40;96.50;;;;;;4330560;33;20068;-77
2021/10/31 14:07:02;;;;;;;;;;;16.40;96.50;;;;;;4329391;33;42288;-76
2021/10/31 14:09:29;;;;;;;;;;;16.50;96.50;;;;;;4329243;33;45882;-77
2021/10/31 14:11:59;;;;;;;;;;;16.50;96.50;;;;;;4329735;33;43691;-77
2021/10/31 14:14:52;;;;;;;;;;;16.50;96.50;;;;;;4329810;33;20020;-76
2021/10/31 14:17:21;;;;;;;;;;;16.50;96.50;;;;;;4304139;33;44712;-77
2021/10/31 14:19:52;;;;;;;;;;;16.50;96.50;;;;;;4333889;33;20010;-77
2021/10/31 14:22:24;;;;;;;;;;;16.60;96.50;;;;;;4333205;33;43260;-77
2021/10/31 14:24:57;;;;;;;;;;;16.50;96.50;;;;;;4332666;33;42594;-77
2021/10/31 14:27:27;;;;;;;;;;;16.60;96.60;;;;;;4333119;33;20016;-77
2021/10/31 14:30:10;;;;;;;;;;;16.60;96.50;;;;;;4344852;33;20013;-76
2021/10/31 14:32:52;;;;;;;;;;;16.60;96.60;;;;;;4333803;33;20024;-77
2021/10/31 14:35:20;;;;;;;;;;;16.60;96.60;;;;;;4332713;33;20057;-76